Time;durP1;ratioP1;P1;durP2;ratioP2;P2;SDS_P1;SDS_P2;PMS_P1;PMS_P2;Temp;Humidity;BMP_temperature;BMP_pressure;BME280_temperature;BME280_humidity;BME280_pressure;Samples;Min_cycle;Max_cycle;Signal;HPM_P1;HPM_P2
2021/12/28 00:00:33;;;;;;;59.17;42.08;;;;;;;;;;143746;622;46018;-79
2021/12/28 00:03:00;;;;;;;66.68;43.90;;;;;;;;;;143741;577;47023;-80
2021/12/28 00:05:27;;;;;;;62.08;46.90;;;;;;;;;;143747;583;46020;-79
2021/12/28 00:07:54;;;;;;;62.47;45.80;;;;;;;;;;143741;647;46020;-80
2021/12/28 00:10:28;;;;;;;63.10;44.63;;;;;;;;;;143743;566;47018;-80
2021/12/28 00:12:55;;;;;;;68.43;44.60;;;;;;;;;;143741;617;47023;-80
2021/12/28 00:18:06;;;;;;;75.87;51.60;;;;;;;;;;143744;628;47020;-79
2021/12/28 00:20:39;;;;;;;58.85;43.50;;;;;;;;;;143747;623;46012;-80
2021/12/28 00:23:38;;;;;;;56.03;38.03;;;;;;;;;;143743;791;46051;-81
2021/12/28 00:26:34;;;;;;;53.45;38.92;;;;;;;;;;143744;613;46012;-80
2021/12/28 00:29:00;;;;;;;38.42;25.33;;;;;;;;;;143744;588;46016;-80
2021/12/28 00:31:37;;;;;;;43.70;30.33;;;;;;;;;;143742;614;46013;-80
2021/12/28 00:34:04;;;;;;;40.85;24.92;;;;;;;;;;143738;592;47023;-81
2021/12/28 00:36:32;;;;;;;32.97;25.05;;;;;;;;;;143743;567;46012;-80
2021/12/28 00:39:01;;;;;;;42.25;26.92;;;;;;;;;;143743;595;47020;-80
2021/12/28 00:41:36;;;;;;;36.25;24.55;;;;;;;;;;143746;566;46013;-80
2021/12/28 00:44:14;;;;;;;36.80;24.42;;;;;;;;;;143742;605;47020;-80
2021/12/28 00:46:41;;;;;;;38.40;22.83;;;;;;;;;;143743;628;46012;-80
2021/12/28 00:49:08;;;;;;;31.98;22.00;;;;;;;;;;143747;585;46020;-80
2021/12/28 00:51:35;;;;;;;35.95;23.80;;;;;;;;;;143748;646;46018;-80
2021/12/28 00:54:01;;;;;;;32.35;20.60;;;;;;;;;;143743;755;47022;-81
2021/12/28 00:56:28;;;;;;;31.75;20.83;;;;;;;;;;143745;570;46012;-80
2021/12/28 00:58:55;;;;;;;27.35;18.62;;;;;;;;;;143741;564;46020;-80
2021/12/28 01:01:22;;;;;;;20.92;15.23;;;;;;;;;;143749;571;46020;-80
2021/12/28 01:03:49;;;;;;;21.08;14.30;;;;;;;;;;143743;595;46023;-80
2021/12/28 01:06:18;;;;;;;19.25;15.02;;;;;;;;;;143742;566;46012;-79
2021/12/28 01:08:45;;;;;;;26.00;13.60;;;;;;;;;;143746;565;47021;-80
2021/12/28 01:11:12;;;;;;;20.85;13.40;;;;;;;;;;143748;612;46012;-81
2021/12/28 01:13:41;;;;;;;21.12;14.43;;;;;;;;;;143743;635;47022;-80
2021/12/28 01:16:08;;;;;;;21.48;14.05;;;;;;;;;;143744;757;46013;-80
2021/12/28 01:18:35;;;;;;;19.73;13.65;;;;;;;;;;143749;586;46014;-79
2021/12/28 01:21:01;;;;;;;25.73;16.05;;;;;;;;;;143744;664;46012;-79
2021/12/28 01:23:29;;;;;;;27.80;15.85;;;;;;;;;;143740;565;46022;-80
2021/12/28 01:25:55;;;;;;;25.20;16.55;;;;;;;;;;143745;566;46020;-80
2021/12/28 01:28:22;;;;;;;30.35;18.17;;;;;;;;;;143745;595;46020;-81
2021/12/28 01:30:49;;;;;;;25.65;18.50;;;;;;;;;;143748;660;46019;-79
2021/12/28 01:33:15;;;;;;;27.30;18.37;;;;;;;;;;143742;821;47023;-80
2021/12/28 01:35:42;;;;;;;31.75;22.30;;;;;;;;;;143745;587;46048;-81
2021/12/28 01:38:09;;;;;;;28.10;19.98;;;;;;;;;;143735;748;46020;-81
2021/12/28 01:40:43;;;;;;;29.98;22.50;;;;;;;;;;143733;614;46020;-79
2021/12/28 01:43:17;;;;;;;26.60;18.87;;;;;;;;;;143731;576;46022;-80
2021/12/28 01:46:04;;;;;;;28.00;18.87;;;;;;;;;;143732;570;46012;-81
2021/12/28 01:48:33;;;;;;;26.45;16.65;;;;;;;;;;143732;570;47018;-79
2021/12/28 01:51:03;;;;;;;25.40;18.75;;;;;;;;;;143734;685;46012;-79
2021/12/28 01:53:34;;;;;;;26.27;17.77;;;;;;;;;;143732;676;46022;-79
2021/12/28 01:56:06;;;;;;;24.58;15.88;;;;;;;;;;143731;600;46012;-79
2021/12/28 01:58:33;;;;;;;27.37;16.40;;;;;;;;;;143734;615;46020;-79
2021/12/28 02:01:00;;;;;;;26.27;18.58;;;;;;;;;;143734;625;46012;-79
2021/12/28 02:03:30;;;;;;;24.73;17.48;;;;;;;;;;143731;813;47021;-79
2021/12/28 02:05:57;;;;;;;24.90;17.67;;;;;;;;;;143733;675;46020;-79
2021/12/28 02:08:24;;;;;;;26.87;18.75;;;;;;;;;;143731;609;47020;-79
2021/12/28 02:10:54;;;;;;;30.98;19.80;;;;;;;;;;143734;759;46012;-79
2021/12/28 02:13:22;;;;;;;25.58;18.35;;;;;;;;;;143729;718;47022;-80
2021/12/28 02:15:49;;;;;;;30.50;20.75;;;;;;;;;;143731;585;46013;-80
2021/12/28 02:18:18;;;;;;;30.88;20.45;;;;;;;;;;143734;797;46018;-80
2021/12/28 02:20:46;;;;;;;26.40;19.80;;;;;;;;;;143734;573;46012;-79
2021/12/28 02:23:14;;;;;;;23.40;16.50;;;;;;;;;;143729;595;47022;-78
2021/12/28 02:25:41;;;;;;;22.02;13.55;;;;;;;;;;143732;581;46014;-80
2021/12/28 02:28:13;;;;;;;24.90;16.35;;;;;;;;;;143732;604;47020;-79
2021/12/28 02:30:46;;;;;;;24.15;15.55;;;;;;;;;;143735;606;46019;-80
2021/12/28 02:33:13;;;;;;;24.25;14.68;;;;;;;;;;143731;565;47023;-79
2021/12/28 02:35:40;;;;;;;26.87;15.90;;;;;;;;;;143731;564;46020;-79
2021/12/28 02:38:11;;;;;;;25.08;15.93;;;;;;;;;;143731;756;46020;-79
2021/12/28 02:40:40;;;;;;;21.48;15.23;;;;;;;;;;143734;617;46013;-79
2021/12/28 02:43:10;;;;;;;23.87;15.95;;;;;;;;;;143733;643;46020;-80
2021/12/28 02:45:39;;;;;;;23.52;16.00;;;;;;;;;;143733;778;46913;-79
2021/12/28 02:48:07;;;;;;;22.75;14.55;;;;;;;;;;143735;566;46021;-80
2021/12/28 02:50:41;;;;;;;22.23;14.63;;;;;;;;;;143737;614;46020;-79
2021/12/28 02:53:10;;;;;;;21.92;13.45;;;;;;;;;;143732;571;47022;-79
2021/12/28 02:55:39;;;;;;;18.52;12.35;;;;;;;;;;143735;627;46020;-79
2021/12/28 02:58:08;;;;;;;20.85;13.43;;;;;;;;;;143734;577;46045;-80
2021/12/28 03:00:44;;;;;;;19.83;13.30;;;;;;;;;;143736;609;46013;-79
2021/12/28 03:03:22;;;;;;;20.27;13.80;;;;;;;;;;143734;717;46020;-80
2021/12/28 03:05:51;;;;;;;20.17;13.82;;;;;;;;;;143735;650;46014;-79
2021/12/28 03:08:22;;;;;;;19.77;13.65;;;;;;;;;;143733;598;46021;-80
2021/12/28 03:10:49;;;;;;;27.00;15.18;;;;;;;;;;143737;637;46018;-80
2021/12/28 03:13:22;;;;;;;25.33;14.38;;;;;;;;;;143732;578;47022;-80
2021/12/28 03:15:49;;;;;;;21.92;14.65;;;;;;;;;;143734;578;46021;-79
2021/12/28 03:18:16;;;;;;;22.98;15.45;;;;;;;;;;143735;776;46020;-78
2021/12/28 03:20:43;;;;;;;20.58;13.25;;;;;;;;;;143734;583;46012;-78
2021/12/28 03:23:09;;;;;;;20.55;13.00;;;;;;;;;;143728;703;47022;-79
2021/12/28 03:25:39;;;;;;;20.20;13.98;;;;;;;;;;143732;608;46012;-80
2021/12/28 03:28:06;;;;;;;105.37;74.70;;;;;;;;;;143732;577;47020;-80
2021/12/28 03:30:32;;;;;;;25.85;15.77;;;;;;;;;;143734;723;46020;-79
2021/12/28 03:32:59;;;;;;;19.45;14.65;;;;;;;;;;143732;602;46023;-79
2021/12/28 03:35:29;;;;;;;51.30;37.17;;;;;;;;;;143733;591;46012;-79
2021/12/28 03:37:55;;;;;;;32.70;23.50;;;;;;;;;;143733;590;47020;-81
2021/12/28 03:40:22;;;;;;;18.08;14.65;;;;;;;;;;143736;602;46012;-80
2021/12/28 03:42:49;;;;;;;32.78;19.65;;;;;;;;;;143733;815;46022;-79
2021/12/28 03:45:16;;;;;;;36.65;23.02;;;;;;;;;;143732;609;46020;-79
2021/12/28 03:47:42;;;;;;;34.78;23.85;;;;;;;;;;143734;577;46021;-79
2021/12/28 03:50:11;;;;;;;39.08;26.75;;;;;;;;;;143733;605;46018;-81
2021/12/28 03:52:39;;;;;;;33.47;25.80;;;;;;;;;;143732;567;47014;-80
2021/12/28 03:55:07;;;;;;;35.42;22.25;;;;;;;;;;143732;617;46012;-79
2021/12/28 03:57:36;;;;;;;41.45;26.08;;;;;;;;;;143735;729;46020;-80
2021/12/28 04:00:05;;;;;;;30.10;20.23;;;;;;;;;;143735;825;46042;-80
2021/12/28 04:02:34;;;;;;;27.15;20.02;;;;;;;;;;143732;694;47023;-78
2021/12/28 04:05:01;;;;;;;31.27;21.15;;;;;;;;;;143730;569;46913;-80
2021/12/28 04:07:29;;;;;;;24.52;16.95;;;;;;;;;;143733;593;46021;-79
2021/12/28 04:10:01;;;;;;;24.58;17.80;;;;;;;;;;143735;567;46012;-80
2021/12/28 04:12:31;;;;;;;24.45;17.15;;;;;;;;;;143731;614;47022;-80
2021/12/28 04:14:58;;;;;;;25.55;17.90;;;;;;;;;;143734;605;46012;-80
2021/12/28 04:17:27;;;;;;;29.73;19.00;;;;;;;;;;143733;839;46021;-81
2021/12/28 04:19:54;;;;;;;32.05;18.80;;;;;;;;;;143734;653;46032;-80
2021/12/28 04:22:20;;;;;;;27.15;16.12;;;;;;;;;;143731;572;47022;-79
2021/12/28 04:24:47;;;;;;;25.88;17.87;;;;;;;;;;143732;684;46012;-79
2021/12/28 04:27:14;;;;;;;31.52;17.90;;;;;;;;;;143734;748;46020;-80
2021/12/28 04:29:42;;;;;;;39.45;20.15;;;;;;;;;;143737;583;46019;-79
2021/12/28 04:32:09;;;;;;;30.67;20.45;;;;;;;;;;143733;862;47023;-79
2021/12/28 04:34:36;;;;;;;27.37;19.02;;;;;;;;;;143733;733;46020;-81
2021/12/28 04:37:03;;;;;;;29.55;18.70;;;;;;;;;;143737;583;46015;-80
2021/12/28 04:39:29;;;;;;;28.55;15.30;;;;;;;;;;143736;953;46013;-80
2021/12/28 04:41:56;;;;;;;20.75;15.75;;;;;;;;;;143732;570;47022;-79
2021/12/28 04:44:25;;;;;;;23.30;16.37;;;;;;;;;;143733;620;46012;-80
2021/12/28 04:46:53;;;;;;;22.05;15.82;;;;;;;;;;143734;599;47021;-81
2021/12/28 04:49:24;;;;;;;25.42;15.20;;;;;;;;;;143736;694;47020;-81
2021/12/28 04:51:51;;;;;;;27.83;15.98;;;;;;;;;;143734;573;46032;-80
2021/12/28 04:54:18;;;;;;;22.65;15.27;;;;;;;;;;143734;635;46013;-81
2021/12/28 04:56:46;;;;;;;29.95;17.55;;;;;;;;;;143736;628;46020;-79
2021/12/28 04:59:16;;;;;;;25.88;18.92;;;;;;;;;;143736;814;46018;-80
2021/12/28 05:01:42;;;;;;;28.02;18.98;;;;;;;;;;143733;564;47023;-80
2021/12/28 05:04:09;;;;;;;26.80;19.42;;;;;;;;;;143733;591;46020;-79
2021/12/28 05:06:37;;;;;;;30.48;18.90;;;;;;;;;;143734;636;47020;-81
2021/12/28 05:09:08;;;;;;;24.30;18.05;;;;;;;;;;143737;633;46012;-80
2021/12/28 05:11:35;;;;;;;27.13;18.67;;;;;;;;;;143735;670;46020;-79
2021/12/28 05:14:04;;;;;;;25.62;19.12;;;;;;;;;;143732;719;46020;-81
2021/12/28 05:16:33;;;;;;;28.58;20.60;;;;;;;;;;143735;620;46040;-80
2021/12/28 05:19:02;;;;;;;23.45;18.00;;;;;;;;;;143737;597;46012;-80
2021/12/28 05:21:29;;;;;;;24.50;17.35;;;;;;;;;;143735;569;46022;-80
2021/12/28 05:23:56;;;;;;;23.90;18.42;;;;;;;;;;143737;641;46012;-80
2021/12/28 05:26:22;;;;;;;28.02;17.10;;;;;;;;;;143737;586;46014;-79
2021/12/28 05:28:49;;;;;;;25.00;17.92;;;;;;;;;;143735;570;47018;-80
2021/12/28 05:31:16;;;;;;;24.90;17.17;;;;;;;;;;143734;608;47023;-80
2021/12/28 05:33:43;;;;;;;26.10;15.57;;;;;;;;;;143736;653;46020;-80
2021/12/28 05:36:10;;;;;;;23.15;16.92;;;;;;;;;;143736;650;46020;-80
2021/12/28 05:38:37;;;;;;;27.55;17.33;;;;;;;;;;143736;596;46012;-80
2021/12/28 05:41:05;;;;;;;31.83;19.35;;;;;;;;;;143735;820;46020;-80
2021/12/28 05:43:32;;;;;;;30.48;18.05;;;;;;;;;;143732;569;47012;-81
2021/12/28 05:46:00;;;;;;;31.23;20.05;;;;;;;;;;143736;695;46048;-79
2021/12/28 05:48:30;;;;;;;30.23;20.90;;;;;;;;;;143736;601;46012;-80
2021/12/28 05:50:56;;;;;;;31.67;21.55;;;;;;;;;;143732;664;47022;-79
2021/12/28 05:53:23;;;;;;;35.60;22.95;;;;;;;;;;143732;620;46021;-78
2021/12/28 05:55:50;;;;;;;34.38;25.98;;;;;;;;;;143735;571;46020;-79
2021/12/28 05:58:20;;;;;;;37.35;22.90;;;;;;;;;;143735;728;46019;-79
2021/12/28 06:00:47;;;;;;;36.95;25.02;;;;;;;;;;143734;724;47023;-80
2021/12/28 06:03:13;;;;;;;32.22;21.85;;;;;;;;;;143736;814;46047;-79
2021/12/28 06:05:40;;;;;;;35.85;23.83;;;;;;;;;;143736;567;46047;-79
2021/12/28 06:08:08;;;;;;;35.22;21.87;;;;;;;;;;143737;895;46013;-78
2021/12/28 06:10:35;;;;;;;36.67;18.00;;;;;;;;;;143733;599;46022;-79
2021/12/28 06:13:02;;;;;;;26.67;19.12;;;;;;;;;;143735;585;46012;-78
2021/12/28 06:15:30;;;;;;;37.00;21.30;;;;;;;;;;143736;631;46021;-78
2021/12/28 06:17:58;;;;;;;26.48;19.45;;;;;;;;;;143737;598;46018;-79
2021/12/28 06:20:25;;;;;;;30.67;20.23;;;;;;;;;;143733;655;46022;-79
2021/12/28 06:22:52;;;;;;;30.48;21.17;;;;;;;;;;143736;837;46012;-78
2021/12/28 06:25:19;;;;;;;26.50;16.75;;;;;;;;;;143733;582;47020;-79
2021/12/28 06:27:45;;;;;;;30.17;19.12;;;;;;;;;;143736;582;46012;-79
2021/12/28 06:30:12;;;;;;;29.10;20.37;;;;;;;;;;143735;595;46022;-80
2021/12/28 06:32:40;;;;;;;40.00;30.65;;;;;;;;;;143734;564;46012;-79
2021/12/28 06:35:11;;;;;;;32.97;23.65;;;;;;;;;;143736;598;46020;-79
2021/12/28 06:37:38;;;;;;;41.13;32.05;;;;;;;;;;143737;569;46044;-78
2021/12/28 06:40:11;;;;;;;39.63;31.77;;;;;;;;;;143733;569;47020;-80
2021/12/28 06:42:39;;;;;;;38.10;26.45;;;;;;;;;;143733;647;46913;-78
2021/12/28 06:45:13;;;;;;;32.88;22.73;;;;;;;;;;143734;603;46048;-78
2021/12/28 06:47:40;;;;;;;40.50;24.17;;;;;;;;;;143735;607;46012;-78
2021/12/28 06:50:07;;;;;;;36.92;23.40;;;;;;;;;;143735;571;46022;-79
2021/12/28 06:52:37;;;;;;;31.60;23.38;;;;;;;;;;143734;715;46014;-78
2021/12/28 06:55:05;;;;;;;30.08;21.45;;;;;;;;;;143734;710;47020;-78
2021/12/28 06:57:32;;;;;;;28.65;21.80;;;;;;;;;;143735;628;47012;-79
2021/12/28 07:00:03;;;;;;;28.42;20.73;;;;;;;;;;143735;627;46021;-78
2021/12/28 07:02:30;;;;;;;30.58;21.35;;;;;;;;;;143733;604;46012;-78
2021/12/28 07:04:57;;;;;;;25.17;19.02;;;;;;;;;;143733;663;47020;-77
2021/12/28 07:07:23;;;;;;;28.75;21.08;;;;;;;;;;143736;564;46012;-79
2021/12/28 07:09:50;;;;;;;26.42;20.20;;;;;;;;;;143733;602;47023;-79
2021/12/28 07:12:16;;;;;;;26.25;20.17;;;;;;;;;;143736;590;47020;-78
2021/12/28 07:14:43;;;;;;;28.42;20.48;;;;;;;;;;143735;593;47021;-79
2021/12/28 07:17:10;;;;;;;34.50;22.08;;;;;;;;;;143734;569;46020;-79
2021/12/28 07:19:36;;;;;;;36.28;23.38;;;;;;;;;;143737;642;46020;-79
2021/12/28 07:22:03;;;;;;;35.08;23.77;;;;;;;;;;143732;619;46013;-80
2021/12/28 07:24:31;;;;;;;32.45;24.33;;;;;;;;;;143734;607;46014;-80
2021/12/28 07:27:04;;;;;;;35.53;27.95;;;;;;;;;;143736;626;47020;-81
2021/12/28 07:29:33;;;;;;;40.53;25.98;;;;;;;;;;143734;601;47022;-78
2021/12/28 07:32:02;;;;;;;41.37;26.45;;;;;;;;;;143732;749;46012;-81
2021/12/28 07:34:31;;;;;;;37.60;27.20;;;;;;;;;;143733;564;47020;-79
2021/12/28 07:36:57;;;;;;;41.13;22.98;;;;;;;;;;143735;671;46019;-80
2021/12/28 07:39:24;;;;;;;35.83;23.90;;;;;;;;;;143734;566;47020;-80
2021/12/28 07:41:51;;;;;;;36.42;25.88;;;;;;;;;;143734;593;46012;-81
2021/12/28 07:44:19;;;;;;;44.75;25.27;;;;;;;;;;143734;666;46020;-80
2021/12/28 07:46:49;;;;;;;35.40;25.37;;;;;;;;;;143735;677;46018;-82
2021/12/28 07:49:16;;;;;;;38.10;26.40;;;;;;;;;;143734;593;47022;-81
2021/12/28 07:51:43;;;;;;;34.90;26.67;;;;;;;;;;143736;755;46013;-81
2021/12/28 07:54:10;;;;;;;41.42;31.90;;;;;;;;;;143735;593;46020;-81
2021/12/28 07:56:38;;;;;;;38.40;28.73;;;;;;;;;;143735;600;46012;-81
2021/12/28 07:59:07;;;;;;;35.78;28.95;;;;;;;;;;143731;570;47022;-82
2021/12/28 08:01:35;;;;;;;38.15;26.02;;;;;;;;;;143735;566;46012;-80
2021/12/28 08:04:05;;;;;;;35.65;22.15;;;;;;;;;;143733;565;47020;-80
2021/12/28 08:06:45;;;;;;;35.03;25.35;;;;;;;;;;143739;852;46020;-80
2021/12/28 08:09:11;;;;;;;35.10;25.42;;;;;;;;;;143736;681;46014;-81
2021/12/28 08:11:40;;;;;;;43.10;28.05;;;;;;;;;;143735;606;46012;-80
2021/12/28 08:14:10;;;;;;;46.17;30.17;;;;;;;;;;143735;673;47021;-81
2021/12/28 08:16:37;;;;;;;36.40;26.77;;;;;;;;;;143737;575;46012;-82
2021/12/28 08:19:06;;;;;;;45.67;28.27;;;;;;;;;;143735;581;46022;-81
2021/12/28 08:21:33;;;;;;;43.05;29.70;;;;;;;;;;143732;796;47013;-83
2021/12/28 08:24:00;;;;;;;41.22;22.98;;;;;;;;;;143734;591;47020;-81
2021/12/28 08:26:28;;;;;;;34.00;23.45;;;;;;;;;;143737;584;46012;-82
2021/12/28 08:28:55;;;;;;;47.83;27.15;;;;;;;;;;143733;658;47022;-82
2021/12/28 08:31:22;;;;;;;39.75;26.73;;;;;;;;;;143734;579;46012;-81
2021/12/28 08:33:49;;;;;;;40.25;25.37;;;;;;;;;;143734;738;47020;-80
2021/12/28 08:36:16;;;;;;;40.83;27.58;;;;;;;;;;143736;705;46013;-80
2021/12/28 08:38:43;;;;;;;48.50;28.33;;;;;;;;;;143733;630;47020;-80
2021/12/28 08:41:10;;;;;;;45.63;30.85;;;;;;;;;;143733;759;46012;-79
2021/12/28 08:43:38;;;;;;;41.92;29.92;;;;;;;;;;143735;789;47020;-80
2021/12/28 08:46:05;;;;;;;44.85;27.02;;;;;;;;;;143734;694;46018;-80
2021/12/28 08:48:31;;;;;;;45.95;26.37;;;;;;;;;;143732;616;48020;-80
2021/12/28 08:51:00;;;;;;;37.90;23.98;;;;;;;;;;143734;569;46013;-81
2021/12/28 08:53:27;;;;;;;48.13;28.83;;;;;;;;;;143733;626;46023;-80
2021/12/28 08:55:53;;;;;;;44.83;29.17;;;;;;;;;;143737;587;46014;-79
2021/12/28 08:58:20;;;;;;;45.65;33.60;;;;;;;;;;143732;574;47021;-80
2021/12/28 09:00:47;;;;;;;48.10;31.98;;;;;;;;;;143734;608;46914;-80
2021/12/28 09:03:14;;;;;;;53.10;33.53;;;;;;;;;;143737;582;46020;-80
2021/12/28 09:05:41;;;;;;;49.70;33.70;;;;;;;;;;143734;567;46013;-79
2021/12/28 09:08:13;;;;;;;49.20;31.45;;;;;;;;;;143732;587;46014;-79
2021/12/28 09:10:40;;;;;;;56.70;31.80;;;;;;;;;;143731;595;46012;-81
2021/12/28 09:13:07;;;;;;;40.22;29.10;;;;;;;;;;143733;877;46021;-80
2021/12/28 09:15:38;;;;;;;38.03;26.55;;;;;;;;;;143732;564;47012;-82
2021/12/28 09:18:13;;;;;;;46.20;25.20;;;;;;;;;;143731;595;47020;-79
2021/12/28 09:20:43;;;;;;;41.35;23.75;;;;;;;;;;143731;584;46021;-81
2021/12/28 09:23:14;;;;;;;31.85;17.05;;;;;;;;;;143734;589;46020;-80
2021/12/28 09:25:50;;;;;;;30.12;18.27;;;;;;;;;;143736;777;46018;-79
2021/12/28 09:28:17;;;;;;;30.45;20.73;;;;;;;;;;143732;592;46017;-81
2021/12/28 09:30:44;;;;;;;31.80;19.70;;;;;;;;;;143732;569;47020;-80
2021/12/28 09:33:11;;;;;;;31.58;19.12;;;;;;;;;;143734;564;46020;-78
2021/12/28 09:35:39;;;;;;;35.25;19.23;;;;;;;;;;143733;617;46012;-80
2021/12/28 09:38:06;;;;;;;37.80;19.40;;;;;;;;;;143732;629;46016;-79
2021/12/28 09:40:35;;;;;;;30.05;19.23;;;;;;;;;;143730;585;47012;-80
2021/12/28 09:43:06;;;;;;;42.65;23.48;;;;;;;;;;143732;627;47021;-81
2021/12/28 09:45:33;;;;;;;36.03;23.38;;;;;;;;;;143733;607;46012;-79
2021/12/28 09:48:00;;;;;;;47.67;24.02;;;;;;;;;;143731;584;47022;-80
2021/12/28 09:50:27;;;;;;;37.42;25.40;;;;;;;;;;143733;627;46037;-80
2021/12/28 09:52:55;;;;;;;48.38;27.30;;;;;;;;;;143731;765;47018;-80
2021/12/28 09:55:24;;;;;;;42.62;26.77;;;;;;;;;;143735;571;46012;-81
2021/12/28 09:57:52;;;;;;;37.25;25.37;;;;;;;;;;143732;633;46022;-80
2021/12/28 10:00:19;;;;;;;36.20;26.83;;;;;;;;;;143731;617;46014;-80
2021/12/28 10:02:47;;;;;;;40.90;29.75;;;;;;;;;;143732;637;46020;-80
2021/12/28 10:05:17;;;;;;;47.22;25.52;;;;;;;;;;143735;590;46021;-80
2021/12/28 10:08:01;;;;;;;32.47;21.50;;;;;;;;;;143734;587;47023;-80
2021/12/28 10:10:37;;;;;;;34.75;20.35;;;;;;;;;;143732;599;47020;-80
2021/12/28 10:13:11;;;;;;;33.05;22.48;;;;;;;;;;143735;564;46020;-78
2021/12/28 10:15:40;;;;;;;37.80;23.73;;;;;;;;;;143733;636;47020;-79
2021/12/28 10:18:11;;;;;;;36.40;23.70;;;;;;;;;;143732;566;46022;-83
2021/12/28 10:20:58;;;;;;;36.15;26.73;;;;;;;;;;143732;715;46012;-81
2021/12/28 10:23:27;;;;;;;34.83;22.52;;;;;;;;;;143735;564;46020;-81
2021/12/28 10:26:04;;;;;;;31.60;20.55;;;;;;;;;;143734;590;46020;-80
2021/12/28 10:28:35;;;;;;;46.17;23.87;;;;;;;;;;143730;564;47022;-81
2021/12/28 10:31:18;;;;;;;39.13;22.45;;;;;;;;;;143733;574;45913;-80
2021/12/28 10:33:45;;;;;;;34.88;23.02;;;;;;;;;;143733;580;47019;-80
2021/12/28 10:36:16;;;;;;;44.05;24.80;;;;;;;;;;143735;559;46013;-80
2021/12/28 10:38:51;;;;;;;38.47;26.02;;;;;;;;;;143731;592;47022;-80
2021/12/28 10:41:19;;;;;;;45.53;25.62;;;;;;;;;;143730;604;46020;-80
2021/12/28 10:43:54;;;;;;;43.10;23.98;;;;;;;;;;143732;595;47021;-81
2021/12/28 10:47:21;;;;;;;66.32;42.05;;;;;;;;;;143734;603;46012;-81
2021/12/28 10:49:48;;;;;;;48.78;32.00;;;;;;;;;;143732;607;46017;-80
2021/12/28 10:52:33;;;;;;;53.72;30.92;;;;;;;;;;143733;585;46020;-80
2021/12/28 10:55:21;;;;;;;55.45;34.85;;;;;;;;;;143732;707;46020;-80
2021/12/28 10:57:47;;;;;;;46.33;32.78;;;;;;;;;;143734;668;46013;-80
2021/12/28 11:00:42;;;;;;;46.28;30.80;;;;;;;;;;143732;634;46020;-81
2021/12/28 11:03:26;;;;;;;48.53;31.05;;;;;;;;;;143732;595;46012;-81
2021/12/28 11:05:57;;;;;;;54.55;33.63;;;;;;;;;;143733;870;46020;-79
2021/12/28 11:08:28;;;;;;;52.92;33.92;;;;;;;;;;143734;587;46018;-79
2021/12/28 11:10:59;;;;;;;49.42;33.45;;;;;;;;;;143734;565;46020;-80
2021/12/28 11:13:28;;;;;;;54.03;36.65;;;;;;;;;;143732;654;46046;-80
2021/12/28 11:15:56;;;;;;;55.65;37.40;;;;;;;;;;143733;625;46020;-79
2021/12/28 11:18:33;;;;;;;51.60;32.00;;;;;;;;;;143732;673;46023;-81
2021/12/28 11:21:25;;;;;;;59.22;36.17;;;;;;;;;;143729;594;47023;-81
2021/12/28 11:24:07;;;;;;;;;;;;;;;;;;;;;
2021/12/28 11:26:42;;;;;;;51.33;37.03;;;;;;;;;;143733;691;46017;-81
2021/12/28 11:29:36;;;;;;;58.42;38.15;;;;;;;;;;143733;627;47025;-79
2021/12/28 11:32:32;;;;;;;50.42;32.47;;;;;;;;;;143732;635;47024;-81
2021/12/28 11:35:06;;;;;;;47.90;32.55;;;;;;;;;;143730;693;47913;-80
2021/12/28 11:37:34;;;;;;;46.63;29.70;;;;;;;;;;143731;700;47020;-81
2021/12/28 11:40:08;;;;;;;57.60;29.12;;;;;;;;;;143734;773;46012;-81
2021/12/28 11:42:35;;;;;;;43.70;29.27;;;;;;;;;;143731;565;47021;-80
2021/12/28 11:45:13;;;;;;;41.15;23.33;;;;;;;;;;143732;901;46020;-80
2021/12/28 11:47:40;;;;;;;50.80;22.98;;;;;;;;;;143733;569;46020;-81
2021/12/28 11:50:09;;;;;;;36.65;25.50;;;;;;;;;;143734;603;46013;-80
2021/12/28 11:52:35;;;;;;;39.80;22.77;;;;;;;;;;143732;600;46051;-80
2021/12/28 11:55:04;;;;;;;33.50;24.48;;;;;;;;;;143732;661;47020;-81
2021/12/28 11:57:39;;;;;;;40.12;26.90;;;;;;;;;;143733;640;46015;-80
2021/12/28 12:00:11;;;;;;;50.35;30.25;;;;;;;;;;143736;622;46020;-78
2021/12/28 12:03:03;;;;;;;41.53;30.62;;;;;;;;;;143734;615;46022;-80
2021/12/28 12:05:32;;;;;;;44.22;25.35;;;;;;;;;;143731;803;46013;-82
2021/12/28 12:08:24;;;;;;;41.80;24.60;;;;;;;;;;143735;615;46020;-81
2021/12/28 12:11:03;;;;;;;43.15;19.20;;;;;;;;;;143736;633;46013;-79
2021/12/28 12:13:31;;;;;;;29.02;18.37;;;;;;;;;;143729;618;47020;-81
2021/12/28 12:16:01;;;;;;;27.73;16.95;;;;;;;;;;143732;582;46012;-81
2021/12/28 12:18:46;;;;;;;15.90;13.07;;;;;;;;;;143734;640;46020;-81
2021/12/28 12:21:17;;;;;;;25.85;11.52;;;;;;;;;;143735;638;46012;-81
2021/12/28 12:24:00;;;;;;;;;;;;;;;;;;;;;
2021/12/28 12:26:33;;;;;;;23.52;13.20;;;;;;;;;;143734;585;46021;-80
2021/12/28 12:29:00;;;;;;;21.83;11.43;;;;;;;;;;143734;564;46021;-80
2021/12/28 12:31:51;;;;;;;;;;;;;;;;;;;;;
2021/12/28 12:34:37;;;;;;;18.35;12.15;;;;;;;;;;143734;570;46015;-80
2021/12/28 12:37:16;;;;;;;24.70;12.20;;;;;;;;;;143731;594;46012;-80
2021/12/28 12:39:52;;;;;;;23.15;14.87;;;;;;;;;;143736;664;45020;-81
2021/12/28 12:42:41;;;;;;;25.02;15.15;;;;;;;;;;143736;580;46012;-80
2021/12/28 12:45:08;;;;;;;34.28;18.37;;;;;;;;;;143734;678;46014;-81
2021/12/28 12:47:47;;;;;;;24.45;15.45;;;;;;;;;;143733;641;46015;-80
2021/12/28 12:50:13;;;;;;;32.03;16.23;;;;;;;;;;143731;605;47021;-80
2021/12/28 12:52:41;;;;;;;28.15;14.48;;;;;;;;;;143733;613;47012;-80
2021/12/28 12:55:10;;;;;;;26.83;14.52;;;;;;;;;;143732;581;46022;-80
2021/12/28 12:57:37;;;;;;;25.08;13.95;;;;;;;;;;143730;597;46913;-80
2021/12/28 13:00:15;;;;;;;30.77;16.67;;;;;;;;;;143732;556;47021;-80
2021/12/28 13:02:43;;;;;;;24.63;14.02;;;;;;;;;;143734;567;46012;-81
2021/12/28 13:05:23;;;;;;;28.67;17.15;;;;;;;;;;143730;640;47020;-81
2021/12/28 13:07:51;;;;;;;26.00;15.88;;;;;;;;;;143731;564;46012;-80
2021/12/28 13:10:27;;;;;;;22.85;17.50;;;;;;;;;;143734;625;46020;-79
2021/12/28 13:12:55;;;;;;;28.55;19.80;;;;;;;;;;143734;599;46012;-80
2021/12/28 13:15:30;;;;;;;34.28;21.80;;;;;;;;;;143733;811;47020;-81
2021/12/28 13:17:59;;;;;;;32.58;22.05;;;;;;;;;;143734;569;46012;-79
2021/12/28 13:20:28;;;;;;;34.25;24.17;;;;;;;;;;143734;619;46014;-81
2021/12/28 13:23:01;;;;;;;35.78;29.02;;;;;;;;;;143734;597;46012;-79
2021/12/28 13:25:49;;;;;;;27.83;21.85;;;;;;;;;;143732;605;46022;-80
2021/12/28 13:28:25;;;;;;;23.40;16.08;;;;;;;;;;143732;614;46914;-80
2021/12/28 13:30:54;;;;;;;24.55;15.05;;;;;;;;;;143731;596;46020;-80
2021/12/28 13:33:25;;;;;;;26.00;18.20;;;;;;;;;;143734;570;46021;-81
2021/12/28 13:35:54;;;;;;;26.02;19.08;;;;;;;;;;143734;626;46023;-79
2021/12/28 13:38:23;;;;;;;28.15;16.40;;;;;;;;;;143732;577;46012;-79
2021/12/28 13:40:53;;;;;;;24.48;17.87;;;;;;;;;;143732;581;47020;-79
2021/12/28 13:43:26;;;;;;;26.83;17.15;;;;;;;;;;143734;654;46012;-79
2021/12/28 13:46:00;;;;;;;22.20;17.42;;;;;;;;;;143731;606;46020;-79
2021/12/28 13:48:37;;;;;;;25.40;17.52;;;;;;;;;;143731;629;46012;-80
2021/12/28 13:51:12;;;;;;;22.33;14.85;;;;;;;;;;143733;593;46021;-78
2021/12/28 13:53:53;;;;;;;23.98;16.70;;;;;;;;;;143734;604;46012;-78
2021/12/28 13:56:51;;;;;;;28.60;18.52;;;;;;;;;;143730;646;46044;-80
2021/12/28 13:59:22;;;;;;;31.52;17.45;;;;;;;;;;143730;564;46012;-80
2021/12/28 14:01:49;;;;;;;23.67;17.50;;;;;;;;;;143733;604;46020;-79
2021/12/28 14:04:20;;;;;;;27.02;16.90;;;;;;;;;;143735;611;47018;-79
2021/12/28 14:06:51;;;;;;;21.62;15.50;;;;;;;;;;143731;597;47020;-79
2021/12/28 14:09:29;;;;;;;28.40;17.20;;;;;;;;;;143732;624;46012;-79
2021/12/28 14:11:57;;;;;;;27.27;19.98;;;;;;;;;;143733;591;46015;-79
2021/12/28 14:14:26;;;;;;;40.78;22.50;;;;;;;;;;143735;581;46012;-80
2021/12/28 14:16:58;;;;;;;30.73;19.87;;;;;;;;;;143731;571;47020;-79
2021/12/28 14:19:33;;;;;;;26.85;19.55;;;;;;;;;;143732;619;46014;-80
2021/12/28 14:22:00;;;;;;;35.67;20.23;;;;;;;;;;143733;602;46020;-79
2021/12/28 14:24:28;;;;;;;27.40;19.45;;;;;;;;;;143733;580;46018;-83
2021/12/28 14:27:01;;;;;;;29.27;18.23;;;;;;;;;;143734;578;46021;-80
2021/12/28 14:29:31;;;;;;;21.50;17.42;;;;;;;;;;143729;640;46020;-81
2021/12/28 14:32:21;;;;;;;25.35;15.82;;;;;;;;;;143733;606;47020;-81
2021/12/28 14:35:00;;;;;;;24.20;17.10;;;;;;;;;;143735;564;47018;-79
2021/12/28 14:37:27;;;;;;;22.70;17.75;;;;;;;;;;143730;603;47022;-79
2021/12/28 14:39:55;;;;;;;32.70;17.25;;;;;;;;;;143730;585;46020;-79
2021/12/28 14:42:33;;;;;;;21.77;17.45;;;;;;;;;;143733;646;46021;-80